Time;durP1;ratioP1;P1;durP2;ratioP2;P2;SDS_P1;SDS_P2;PMS_P1;PMS_P2;Temp;Humidity;BMP_temperature;BMP_pressure;BME280_temperature;BME280_humidity;BME280_pressure;Samples;Min_cycle;Max_cycle;Signal;HPM_P1;HPM_P2
2023/10/19 00:00:56;;;;;;;10.80;6.67;;;;;;;;;;5234052;27;349902;-96
2023/10/19 00:03:24;;;;;;;7.93;5.97;;;;;;;;;;5253006;27;317066;-96
2023/10/19 00:05:52;;;;;;;7.50;5.53;;;;;;;;;;5225865;27;316372;-96
2023/10/19 00:08:20;;;;;;;8.77;5.83;;;;;;;;;;5249018;27;316314;-96
2023/10/19 00:10:55;;;;;;;9.40;6.10;;;;;;;;;;5247607;27;316291;-96
2023/10/19 00:13:23;;;;;;;6.73;5.47;;;;;;;;;;5202108;27;419323;-96
2023/10/19 00:15:52;;;;;;;6.83;6.00;;;;;;;;;;5236521;27;316493;-96
2023/10/19 00:18:23;;;;;;;10.77;6.90;;;;;;;;;;5247745;27;316334;-96
2023/10/19 00:20:53;;;;;;;9.90;7.40;;;;;;;;;;5234630;27;386737;-96
2023/10/19 00:23:28;;;;;;;8.70;6.73;;;;;;;;;;5246186;27;316329;-96
2023/10/19 00:25:55;;;;;;;12.53;7.93;;;;;;;;;;5234126;27;344707;-96
2023/10/19 00:28:25;;;;;;;12.83;8.07;;;;;;;;;;5249689;27;317235;-96
2023/10/19 00:30:53;;;;;;;9.17;7.87;;;;;;;;;;5233419;27;317356;-96
2023/10/19 00:33:21;;;;;;;11.20;8.07;;;;;;;;;;5232798;27;316410;-96
2023/10/19 00:35:57;;;;;;;11.40;7.90;;;;;;;;;;5247670;27;317945;-96
2023/10/19 00:38:39;;;;;;;10.50;8.53;;;;;;;;;;5231603;27;420185;-96
2023/10/19 00:41:11;;;;;;;13.53;9.53;;;;;;;;;;5196915;27;317553;-96
2023/10/19 00:43:42;;;;;;;17.03;10.17;;;;;;;;;;5247594;27;317432;-96
2023/10/19 00:46:15;;;;;;;18.90;9.60;;;;;;;;;;5236013;27;329156;-96
2023/10/19 00:48:47;;;;;;;11.50;8.70;;;;;;;;;;5252289;27;316852;-96
2023/10/19 00:51:27;;;;;;;11.07;7.67;;;;;;;;;;5226080;27;419934;-96
2023/10/19 00:53:59;;;;;;;9.17;6.43;;;;;;;;;;5226514;27;317149;-96
2023/10/19 00:56:31;;;;;;;9.80;6.70;;;;;;;;;;5248151;27;316171;-96
2023/10/19 00:59:07;;;;;;;8.63;7.13;;;;;;;;;;5228275;27;316141;-96
2023/10/19 01:01:40;;;;;;;6.37;5.77;;;;;;;;;;5248738;27;316121;-96
2023/10/19 01:04:07;;;;;;;8.13;7.27;;;;;;;;;;5222955;27;316478;-96
2023/10/19 01:06:34;;;;;;;7.90;6.50;;;;;;;;;;5247423;27;316427;-96
2023/10/19 01:09:03;;;;;;;8.70;6.00;;;;;;;;;;5230026;27;316078;-95
2023/10/19 01:11:34;;;;;;;7.37;5.10;;;;;;;;;;5231855;27;316125;-96
2023/10/19 01:14:19;;;;;;;9.73;7.83;;;;;;;;;;5235673;27;348056;-96
2023/10/19 01:16:49;;;;;;;12.87;9.73;;;;;;;;;;5229764;27;316874;-96
2023/10/19 01:19:18;;;;;;;11.63;9.13;;;;;;;;;;5202233;27;415083;-96
2023/10/19 01:21:51;;;;;;;13.87;8.57;;;;;;;;;;5268922;27;316279;-96
2023/10/19 01:24:27;;;;;;;9.03;6.93;;;;;;;;;;5212226;27;416743;-96
2023/10/19 01:26:56;;;;;;;17.13;9.00;;;;;;;;;;5213772;27;316152;-96
2023/10/19 01:29:27;;;;;;;17.60;10.00;;;;;;;;;;5246872;27;324010;-96
2023/10/19 01:32:05;;;;;;;13.40;9.03;;;;;;;;;;5235059;27;318603;-96
2023/10/19 01:34:33;;;;;;;15.77;8.73;;;;;;;;;;5249813;27;320484;-96
2023/10/19 01:37:03;;;;;;;16.13;10.07;;;;;;;;;;5227852;27;317338;-96
2023/10/19 01:39:30;;;;;;;23.03;11.97;;;;;;;;;;5247053;27;318623;-96
2023/10/19 01:41:59;;;;;;;20.50;11.80;;;;;;;;;;5237329;27;325654;-96
2023/10/19 01:44:25;;;;;;;20.53;11.40;;;;;;;;;;5227756;27;318277;-96
2023/10/19 01:46:56;;;;;;;22.83;12.17;;;;;;;;;;5232536;27;344333;-96
2023/10/19 01:49:26;;;;;;;34.10;15.93;;;;;;;;;;5248829;27;322401;-96
2023/10/19 01:51:55;;;;;;;35.47;17.27;;;;;;;;;;5207191;27;318200;-96
2023/10/19 01:54:23;;;;;;;33.00;18.37;;;;;;;;;;5248122;27;318261;-96
2023/10/19 01:56:56;;;;;;;34.77;19.80;;;;;;;;;;5210468;27;318315;-96
2023/10/19 01:59:27;;;;;;;38.20;18.47;;;;;;;;;;5251720;27;318691;-96
2023/10/19 02:01:54;;;;;;;39.70;18.80;;;;;;;;;;5243484;27;318449;-96
2023/10/19 02:04:23;;;;;;;42.27;20.87;;;;;;;;;;5248475;27;319282;-96
2023/10/19 02:06:51;;;;;;;32.73;19.57;;;;;;;;;;5236222;27;319316;-96
2023/10/19 02:09:21;;;;;;;37.10;19.00;;;;;;;;;;5218898;27;317090;-96
2023/10/19 02:11:48;;;;;;;31.57;16.80;;;;;;;;;;5229433;27;318155;-96
2023/10/19 02:14:19;;;;;;;30.70;16.80;;;;;;;;;;5233939;27;417431;-96
2023/10/19 02:16:47;;;;;;;32.10;18.47;;;;;;;;;;5246536;27;318375;-96
2023/10/19 02:19:14;;;;;;;26.53;15.03;;;;;;;;;;5224280;27;418561;-96
2023/10/19 02:21:41;;;;;;;34.03;16.37;;;;;;;;;;5246414;27;329885;-96
2023/10/19 02:24:08;;;;;;;28.20;16.83;;;;;;;;;;5224314;27;318551;-96
2023/10/19 02:26:37;;;;;;;30.90;16.87;;;;;;;;;;5247776;27;318516;-96
2023/10/19 02:29:07;;;;;;;24.27;16.00;;;;;;;;;;5206676;27;318227;-96
2023/10/19 02:31:37;;;;;;;25.83;14.50;;;;;;;;;;5249390;27;319459;-96
2023/10/19 02:34:05;;;;;;;24.97;15.37;;;;;;;;;;5204217;27;318430;-96
2023/10/19 02:36:32;;;;;;;26.17;14.33;;;;;;;;;;5245979;27;318423;-96
2023/10/19 02:39:07;;;;;;;26.50;13.10;;;;;;;;;;5229756;27;318421;-96
2023/10/19 02:41:35;;;;;;;16.47;12.03;;;;;;;;;;5237356;27;318636;-96
2023/10/19 02:44:07;;;;;;;18.30;13.07;;;;;;;;;;5235175;27;318718;-96
2023/10/19 02:46:39;;;;;;;20.53;13.17;;;;;;;;;;5252008;27;318254;-96
2023/10/19 02:49:11;;;;;;;19.60;13.40;;;;;;;;;;5225866;27;343504;-96
2023/10/19 02:51:38;;;;;;;21.13;12.83;;;;;;;;;;5246548;27;318283;-96
2023/10/19 02:54:07;;;;;;;20.97;12.50;;;;;;;;;;5217530;27;318357;-96
2023/10/19 02:56:35;;;;;;;27.47;12.43;;;;;;;;;;5248842;27;318671;-96
2023/10/19 02:59:02;;;;;;;21.57;10.43;;;;;;;;;;5230011;27;318613;-96
2023/10/19 03:01:31;;;;;;;17.40;10.20;;;;;;;;;;5247613;27;318436;-96
2023/10/19 03:04:00;;;;;;;16.80;10.33;;;;;;;;;;5237410;27;318784;-96
2023/10/19 03:06:31;;;;;;;11.07;9.27;;;;;;;;;;5221245;27;318551;-96
2023/10/19 03:08:57;;;;;;;19.53;10.10;;;;;;;;;;5228524;27;317356;-96
2023/10/19 03:11:24;;;;;;;14.97;10.20;;;;;;;;;;5266709;27;317825;-96
2023/10/19 03:13:50;;;;;;;17.20;10.67;;;;;;;;;;5253800;27;317250;-96
2023/10/19 03:16:19;;;;;;;18.17;11.10;;;;;;;;;;5247091;27;317126;-96
2023/10/19 03:18:44;;;;;;;13.53;10.07;;;;;;;;;;5266113;27;317118;-96
2023/10/19 03:21:13;;;;;;;14.20;9.67;;;;;;;;;;5227979;27;318270;-96
2023/10/19 03:23:40;;;;;;;12.00;9.27;;;;;;;;;;5230261;27;317481;-96
2023/10/19 03:26:30;;;;;;;9.53;8.13;;;;;;;;;;5197186;27;317438;-96
2023/10/19 03:28:56;;;;;;;11.17;7.67;;;;;;;;;;5229872;27;316464;-96
2023/10/19 03:31:25;;;;;;;21.67;15.40;;;;;;;;;;5247707;27;317512;-96
2023/10/19 03:33:55;;;;;;;24.70;18.93;;;;;;;;;;5224347;27;318556;-96
2023/10/19 03:36:25;;;;;;;26.27;20.93;;;;;;;;;;5248188;27;318617;-96
2023/10/19 03:38:55;;;;;;;19.17;14.83;;;;;;;;;;5204865;27;319026;-96
2023/10/19 03:41:26;;;;;;;16.97;14.13;;;;;;;;;;5249141;27;318430;-96
2023/10/19 03:43:57;;;;;;;23.80;17.10;;;;;;;;;;5227331;27;318338;-96
2023/10/19 03:46:28;;;;;;;21.17;13.70;;;;;;;;;;5231550;27;318402;-96
2023/10/19 03:48:58;;;;;;;12.67;10.13;;;;;;;;;;5211320;27;318577;-96
2023/10/19 03:51:27;;;;;;;16.50;10.87;;;;;;;;;;5249500;27;318713;-96
2023/10/19 03:54:01;;;;;;;14.93;9.37;;;;;;;;;;5233306;27;318372;-96
2023/10/19 03:56:32;;;;;;;11.23;9.67;;;;;;;;;;5253791;27;317147;-96
2023/10/19 03:59:00;;;;;;;13.50;10.17;;;;;;;;;;5219272;27;317264;-96
2023/10/19 04:01:28;;;;;;;16.20;11.47;;;;;;;;;;5248278;27;319074;-96
2023/10/19 04:03:55;;;;;;;17.73;11.73;;;;;;;;;;5236222;27;318763;-96
2023/10/19 04:06:22;;;;;;;14.93;10.33;;;;;;;;;;5254664;27;318280;-95
2023/10/19 04:08:56;;;;;;;13.67;8.70;;;;;;;;;;5235112;27;318317;-96
2023/10/19 04:11:23;;;;;;;12.10;8.70;;;;;;;;;;5249260;27;317835;-96
2023/10/19 04:13:54;;;;;;;12.47;8.10;;;;;;;;;;5237379;27;317269;-96
2023/10/19 04:16:21;;;;;;;12.90;9.40;;;;;;;;;;5250277;27;316192;-96
2023/10/19 04:27:35;;;;;;;24.17;11.33;;;;;;;;;;5261905;27;315149;-97
2023/10/19 04:43:29;;;;;;;16.93;10.37;;;;;;;;;;5161591;27;389809;-96
2023/10/19 04:45:56;;;;;;;16.90;11.87;;;;;;;;;;5209699;27;318606;-96
2023/10/19 04:48:25;;;;;;;17.87;11.13;;;;;;;;;;5225178;27;318551;-96
2023/10/19 04:50:54;;;;;;;12.93;10.30;;;;;;;;;;5184349;27;318388;-96
2023/10/19 04:53:23;;;;;;;15.57;9.83;;;;;;;;;;5244727;27;317423;-96
2023/10/19 04:55:50;;;;;;;13.93;10.60;;;;;;;;;;5207455;27;316100;-96
2023/10/19 04:58:20;;;;;;;15.43;11.07;;;;;;;;;;5225995;27;420033;-96
2023/10/19 05:00:59;;;;;;;30.73;14.17;;;;;;;;;;5218644;27;318675;-96
2023/10/19 05:03:27;;;;;;;29.10;20.27;;;;;;;;;;5230766;27;422613;-96
2023/10/19 05:06:05;;;;;;;37.20;21.73;;;;;;;;;;5215120;27;318345;-96
2023/10/19 05:08:34;;;;;;;36.53;21.33;;;;;;;;;;5242500;27;318379;-96
2023/10/19 05:11:03;;;;;;;31.10;19.23;;;;;;;;;;5220081;27;317619;-96
2023/10/19 05:13:35;;;;;;;35.63;18.50;;;;;;;;;;5221124;27;317346;-96
2023/10/19 05:16:03;;;;;;;40.37;22.43;;;;;;;;;;5227958;27;333086;-96
2023/10/19 05:18:35;;;;;;;26.77;19.17;;;;;;;;;;5241943;27;318701;-96
2023/10/19 05:23:36;;;;;;;19.30;13.87;;;;;;;;;;5133111;27;317584;-94
2023/10/19 05:26:06;;;;;;;11.47;9.17;;;;;;;;;;5111442;27;323623;-87
2023/10/19 05:28:34;;;;;;;14.60;9.57;;;;;;;;;;5125540;27;318047;-88
2023/10/19 05:31:01;;;;;;;16.70;10.93;;;;;;;;;;5109062;27;335545;-83
2023/10/19 05:33:30;;;;;;;13.60;9.40;;;;;;;;;;5125938;27;319125;-83
2023/10/19 05:35:58;;;;;;;17.97;9.67;;;;;;;;;;5113936;27;317769;-91
2023/10/19 05:38:26;;;;;;;20.63;12.63;;;;;;;;;;5126956;27;317839;-94
2023/10/19 05:40:55;;;;;;;20.60;11.50;;;;;;;;;;5112547;27;318923;-84
2023/10/19 05:43:23;;;;;;;22.93;13.73;;;;;;;;;;5124430;27;318662;-94
2023/10/19 05:45:51;;;;;;;26.77;15.27;;;;;;;;;;5110716;27;318979;-82
2023/10/19 05:48:19;;;;;;;22.83;13.57;;;;;;;;;;5133033;27;318973;-83
2023/10/19 05:50:49;;;;;;;26.17;14.23;;;;;;;;;;5124185;27;342206;-82
2023/10/19 05:53:18;;;;;;;20.73;13.87;;;;;;;;;;5105049;27;418310;-82
2023/10/19 05:55:45;;;;;;;19.37;13.47;;;;;;;;;;5109433;27;320050;-82
2023/10/19 05:58:13;;;;;;;15.17;11.53;;;;;;;;;;5122617;27;318792;-81
2023/10/19 06:00:40;;;;;;;16.37;11.13;;;;;;;;;;5181859;27;318886;-82
2023/10/19 06:03:08;;;;;;;18.07;11.27;;;;;;;;;;5153039;27;319046;-78
2023/10/19 06:05:35;;;;;;;25.70;14.17;;;;;;;;;;5169436;27;338984;-82
2023/10/19 06:08:07;;;;;;;14.47;10.67;;;;;;;;;;5155091;27;319151;-85
2023/10/19 06:10:39;;;;;;;19.13;9.50;;;;;;;;;;5169835;27;319057;-82
2023/10/19 06:13:09;;;;;;;11.70;9.57;;;;;;;;;;5154363;27;318269;-79
2023/10/19 06:15:37;;;;;;;14.33;10.40;;;;;;;;;;5169349;27;317934;-92
2023/10/19 06:18:05;;;;;;;15.23;9.20;;;;;;;;;;5154416;27;344772;-92
2023/10/19 06:20:33;;;;;;;14.13;10.87;;;;;;;;;;5170266;27;317864;-91
2023/10/19 06:23:05;;;;;;;13.00;9.60;;;;;;;;;;5152038;27;319008;-80
2023/10/19 06:25:34;;;;;;;23.37;11.13;;;;;;;;;;5183846;27;317807;-82
2023/10/19 06:28:02;;;;;;;15.53;10.07;;;;;;;;;;5157666;27;319037;-86
2023/10/19 06:30:30;;;;;;;23.80;11.10;;;;;;;;;;5169970;27;319182;-88
2023/10/19 06:33:00;;;;;;;20.10;10.00;;;;;;;;;;5154014;27;318830;-80
2023/10/19 06:35:28;;;;;;;12.97;9.17;;;;;;;;;;5169014;27;318849;-79
2023/10/19 06:37:56;;;;;;;14.07;10.77;;;;;;;;;;5156181;27;317791;-87
2023/10/19 06:40:26;;;;;;;10.00;9.00;;;;;;;;;;5170758;27;318751;-80
2023/10/19 06:42:56;;;;;;;14.37;9.87;;;;;;;;;;5153903;27;317729;-79
2023/10/19 06:45:25;;;;;;;14.83;10.90;;;;;;;;;;5170135;27;317913;-79
2023/10/19 06:47:53;;;;;;;14.67;9.90;;;;;;;;;;5155149;27;319119;-80
2023/10/19 06:50:22;;;;;;;15.20;11.33;;;;;;;;;;5168276;27;317668;-86
2023/10/19 06:52:51;;;;;;;12.63;10.27;;;;;;;;;;5157648;27;318977;-81
2023/10/19 06:55:20;;;;;;;16.73;11.27;;;;;;;;;;5168976;27;318993;-80
2023/10/19 06:57:50;;;;;;;15.77;10.37;;;;;;;;;;5170427;27;318728;-80
2023/10/19 07:00:21;;;;;;;13.00;9.63;;;;;;;;;;5152285;27;419023;-80
2023/10/19 07:02:50;;;;;;;13.60;10.80;;;;;;;;;;5167390;27;317836;-90
2023/10/19 07:05:21;;;;;;;14.50;12.07;;;;;;;;;;5145949;27;418409;-80
2023/10/19 07:07:51;;;;;;;15.67;11.13;;;;;;;;;;5170020;27;319215;-84
2023/10/19 07:10:19;;;;;;;15.20;11.37;;;;;;;;;;5153177;27;419164;-86
2023/10/19 07:12:51;;;;;;;14.40;12.47;;;;;;;;;;5169795;27;319212;-86
2023/10/19 07:15:20;;;;;;;17.03;12.17;;;;;;;;;;5148578;27;420125;-85
2023/10/19 07:17:52;;;;;;;17.73;12.50;;;;;;;;;;5171686;27;318715;-89
2023/10/19 07:20:25;;;;;;;16.23;11.10;;;;;;;;;;5154934;27;419622;-85
2023/10/19 07:22:53;;;;;;;15.57;12.30;;;;;;;;;;5156808;27;318952;-83
2023/10/19 07:25:21;;;;;;;17.27;12.60;;;;;;;;;;5167179;27;318856;-80
2023/10/19 07:27:51;;;;;;;15.80;12.50;;;;;;;;;;5169467;27;318966;-79
2023/10/19 07:30:22;;;;;;;15.93;12.97;;;;;;;;;;5156470;27;418920;-78
2023/10/19 07:32:54;;;;;;;19.07;13.30;;;;;;;;;;5170920;27;318962;-85
2023/10/19 07:35:22;;;;;;;22.87;13.90;;;;;;;;;;5148667;27;419654;-83
2023/10/19 07:37:50;;;;;;;19.03;14.10;;;;;;;;;;5181316;27;318795;-86
2023/10/19 07:40:18;;;;;;;15.53;13.87;;;;;;;;;;5153195;27;418261;-89
2023/10/19 07:42:46;;;;;;;19.33;14.10;;;;;;;;;;5170856;27;318855;-88
2023/10/19 07:45:16;;;;;;;16.70;14.13;;;;;;;;;;5154689;27;318715;-86
2023/10/19 07:47:44;;;;;;;16.97;13.50;;;;;;;;;;5169791;27;318789;-87
2023/10/19 07:50:15;;;;;;;18.37;13.90;;;;;;;;;;5161111;27;319012;-90
2023/10/19 07:52:44;;;;;;;19.03;13.80;;;;;;;;;;5175804;27;318897;-87
2023/10/19 07:55:12;;;;;;;28.43;14.87;;;;;;;;;;5121567;27;319095;-89
2023/10/19 07:57:40;;;;;;;20.07;14.77;;;;;;;;;;5183757;27;326699;-82
2023/10/19 08:00:10;;;;;;;27.30;14.80;;;;;;;;;;5156531;27;318835;-92
2023/10/19 08:02:41;;;;;;;16.43;13.10;;;;;;;;;;5168138;27;318845;-86
2023/10/19 08:05:11;;;;;;;19.40;12.60;;;;;;;;;;5150785;27;319181;-91
2023/10/19 08:07:42;;;;;;;18.20;13.27;;;;;;;;;;5169648;27;318716;-90
2023/10/19 08:10:11;;;;;;;19.47;12.87;;;;;;;;;;5157630;27;318897;-83
2023/10/19 08:12:41;;;;;;;15.10;12.73;;;;;;;;;;5169967;27;318910;-89
2023/10/19 08:15:11;;;;;;;16.53;13.40;;;;;;;;;;5155343;27;319162;-86
2023/10/19 08:17:40;;;;;;;16.50;13.37;;;;;;;;;;5171029;27;318676;-87
2023/10/19 08:20:09;;;;;;;12.83;11.43;;;;;;;;;;5155768;27;318932;-83
2023/10/19 08:22:37;;;;;;;13.40;10.77;;;;;;;;;;5171570;27;318489;-85
2023/10/19 08:25:11;;;;;;;16.83;11.70;;;;;;;;;;5147119;27;318838;-87
2023/10/19 08:27:57;;;;;;;22.97;12.33;;;;;;;;;;5211651;27;317427;-96
2023/10/19 08:30:26;;;;;;;21.80;13.53;;;;;;;;;;5237296;27;419423;-96
2023/10/19 08:32:57;;;;;;;17.83;13.23;;;;;;;;;;5224413;27;318488;-96
2023/10/19 08:35:25;;;;;;;16.37;12.37;;;;;;;;;;5260168;27;318541;-96
2023/10/19 08:37:59;;;;;;;19.93;12.03;;;;;;;;;;5257379;27;318686;-96
2023/10/19 08:40:38;;;;;;;20.97;13.63;;;;;;;;;;5271026;27;317371;-96
2023/10/19 08:43:07;;;;;;;18.57;13.67;;;;;;;;;;5220722;27;318478;-96
2023/10/19 08:45:36;;;;;;;19.13;14.37;;;;;;;;;;5272916;27;318360;-96
2023/10/19 08:48:08;;;;;;;13.77;12.27;;;;;;;;;;5234515;27;356432;-96
2023/10/19 08:50:39;;;;;;;18.63;14.57;;;;;;;;;;5259477;27;318334;-96
2023/10/19 08:53:13;;;;;;;16.97;12.57;;;;;;;;;;5201225;27;318694;-96
2023/10/19 08:55:41;;;;;;;16.43;13.20;;;;;;;;;;5260141;27;318099;-96
2023/10/19 08:58:09;;;;;;;15.73;12.97;;;;;;;;;;5229804;27;317325;-96
2023/10/19 09:00:53;;;;;;;29.53;15.60;;;;;;;;;;5247124;27;318408;-96
2023/10/19 09:03:24;;;;;;;16.33;13.40;;;;;;;;;;5194861;27;318063;-95
2023/10/19 09:05:51;;;;;;;13.53;11.80;;;;;;;;;;5269434;27;317183;-96
2023/10/19 09:08:19;;;;;;;16.90;13.10;;;;;;;;;;5245100;27;318688;-96
2023/10/19 09:10:48;;;;;;;16.17;12.00;;;;;;;;;;5249103;27;318464;-96
2023/10/19 09:13:18;;;;;;;20.03;12.30;;;;;;;;;;5228590;27;318188;-96
2023/10/19 09:15:45;;;;;;;23.67;14.80;;;;;;;;;;5257615;27;318478;-96
2023/10/19 09:18:17;;;;;;;16.93;14.37;;;;;;;;;;5235817;27;318466;-96
2023/10/19 09:20:53;;;;;;;22.87;14.57;;;;;;;;;;5258729;27;318083;-96
2023/10/19 09:23:23;;;;;;;18.40;14.70;;;;;;;;;;5225385;27;318906;-96
2023/10/19 09:25:52;;;;;;;19.43;14.57;;;;;;;;;;5253261;27;318272;-96
2023/10/19 09:28:20;;;;;;;22.57;14.53;;;;;;;;;;5205705;27;318781;-96
2023/10/19 09:30:50;;;;;;;17.63;13.83;;;;;;;;;;5252897;27;318464;-96
2023/10/19 09:33:18;;;;;;;21.33;13.93;;;;;;;;;;5220622;27;318387;-96
2023/10/19 09:35:52;;;;;;;19.93;13.27;;;;;;;;;;5219255;27;318654;-96
2023/10/19 09:38:22;;;;;;;17.07;15.13;;;;;;;;;;5227594;27;318801;-96
2023/10/19 09:40:55;;;;;;;17.23;14.53;;;;;;;;;;5259527;27;318474;-96
2023/10/19 09:43:32;;;;;;;20.97;14.33;;;;;;;;;;5224633;27;318642;-96
2023/10/19 09:46:02;;;;;;;18.40;14.27;;;;;;;;;;5242079;27;318674;-96
2023/10/19 09:48:35;;;;;;;18.07;13.40;;;;;;;;;;5251399;27;318128;-96
2023/10/19 09:51:08;;;;;;;16.33;13.77;;;;;;;;;;5250634;27;318794;-96
2023/10/19 09:53:39;;;;;;;17.30;13.50;;;;;;;;;;5229814;27;318780;-96
2023/10/19 09:56:15;;;;;;;18.63;13.80;;;;;;;;;;5240550;27;319012;-96
2023/10/19 09:58:51;;;;;;;16.97;13.17;;;;;;;;;;5257432;27;318903;-96
2023/10/19 10:01:21;;;;;;;17.70;14.33;;;;;;;;;;5218621;27;318956;-80
2023/10/19 10:03:51;;;;;;;19.23;15.03;;;;;;;;;;5133343;27;319275;-83
2023/10/19 10:06:30;;;;;;;19.07;14.73;;;;;;;;;;5111001;27;319000;-87
2023/10/19 10:09:00;;;;;;;18.10;13.50;;;;;;;;;;5129649;27;319164;-86
2023/10/19 10:11:28;;;;;;;22.27;13.57;;;;;;;;;;5109683;27;418578;-86
2023/10/19 10:13:57;;;;;;;16.48;12.27;;;;;;;;;;5127307;27;318964;-88
2023/10/19 10:16:28;;;;;;;13.82;12.07;;;;;;;;;;5108862;27;418882;-87
2023/10/19 10:19:00;;;;;;;13.83;12.20;;;;;;;;;;5126361;27;318873;-84
2023/10/19 10:21:30;;;;;;;12.37;10.25;;;;;;;;;;5122184;27;388349;-85
2023/10/19 10:23:59;;;;;;;15.65;11.93;;;;;;;;;;5128509;27;319327;-88
2023/10/19 10:26:29;;;;;;;11.45;9.98;;;;;;;;;;5109615;27;419362;-91
2023/10/19 10:29:14;;;;;;;9.32;7.87;;;;;;;;;;5145182;27;317927;-89
2023/10/19 10:31:45;;;;;;;9.45;8.07;;;;;;;;;;5111609;27;416408;-86
2023/10/19 10:34:34;;;;;;;8.20;6.78;;;;;;;;;;5110875;27;346610;-86
2023/10/19 10:37:07;;;;;;;11.43;6.65;;;;;;;;;;5113357;27;316964;-83
2023/10/19 10:39:36;;;;;;;9.75;6.43;;;;;;;;;;5128952;27;317829;-87
2023/10/19 10:42:06;;;;;;;9.77;5.25;;;;;;;;;;5114684;27;317175;-84
2023/10/19 10:44:39;;;;;;;12.90;5.62;;;;;;;;;;5128378;27;317047;-87
2023/10/19 10:47:09;;;;;;;11.68;5.53;;;;;;;;;;5108178;27;317999;-87
2023/10/19 10:49:48;;;;;;;7.00;6.30;;;;;;;;;;5141865;27;317697;-87
2023/10/19 10:52:27;;;;;;;9.65;7.12;;;;;;;;;;5113118;27;317014;-85
2023/10/19 10:54:55;;;;;;;9.73;6.80;;;;;;;;;;5130392;27;316845;-84
2023/10/19 10:57:23;;;;;;;13.85;7.57;;;;;;;;;;5126796;27;316907;-87
2023/10/19 11:00:04;;;;;;;9.88;7.07;;;;;;;;;;5134702;27;317986;-82
2023/10/19 11:02:32;;;;;;;6.53;5.75;;;;;;;;;;5149729;27;351397;-85
2023/10/19 11:05:00;;;;;;;12.07;7.50;;;;;;;;;;5139040;27;316839;-86
2023/10/19 11:07:29;;;;;;;9.27;6.78;;;;;;;;;;5150446;27;318087;-87
2023/10/19 11:09:57;;;;;;;7.68;5.78;;;;;;;;;;5135242;27;316860;-88
2023/10/19 11:12:24;;;;;;;6.00;5.40;;;;;;;;;;5148200;27;316698;-88
2023/10/19 11:14:57;;;;;;;8.17;6.37;;;;;;;;;;5145182;27;317007;-83
2023/10/19 11:17:30;;;;;;;11.05;6.30;;;;;;;;;;5151590;27;316768;-83
2023/10/19 11:19:58;;;;;;;6.10;5.18;;;;;;;;;;5136555;27;317899;-87
2023/10/19 11:22:27;;;;;;;8.75;6.03;;;;;;;;;;5149757;27;317055;-85
2023/10/19 11:24:56;;;;;;;7.50;5.82;;;;;;;;;;5135494;27;317209;-82
2023/10/19 11:27:26;;;;;;;9.18;6.43;;;;;;;;;;5150329;27;317004;-87
2023/10/19 11:29:59;;;;;;;7.93;7.12;;;;;;;;;;5134089;27;316831;-87
2023/10/19 11:32:27;;;;;;;7.87;5.47;;;;;;;;;;5124416;27;316918;-83
2023/10/19 11:34:57;;;;;;;8.48;6.25;;;;;;;;;;5142103;27;316756;-88
2023/10/19 11:37:24;;;;;;;7.10;6.20;;;;;;;;;;5159138;27;316808;-86
2023/10/19 11:39:53;;;;;;;11.35;6.22;;;;;;;;;;5113425;27;316952;-82
2023/10/19 11:42:22;;;;;;;6.37;5.78;;;;;;;;;;5152855;27;318189;-88
2023/10/19 11:44:50;;;;;;;6.40;5.05;;;;;;;;;;5133399;27;316776;-86
2023/10/19 11:47:20;;;;;;;8.70;5.10;;;;;;;;;;5171096;27;316877;-87
2023/10/19 11:49:50;;;;;;;7.03;5.03;;;;;;;;;;5132741;27;316656;-84
2023/10/19 11:52:19;;;;;;;7.45;6.03;;;;;;;;;;5168305;27;316775;-87
2023/10/19 11:54:47;;;;;;;6.07;5.32;;;;;;;;;;5129173;27;316914;-82
2023/10/19 11:57:16;;;;;;;8.57;6.03;;;;;;;;;;5148304;27;316849;-82
2023/10/19 11:59:52;;;;;;;9.73;5.55;;;;;;;;;;5125086;27;352535;-87
2023/10/19 12:02:20;;;;;;;5.55;4.75;;;;;;;;;;5164148;27;316725;-84
2023/10/19 12:04:48;;;;;;;7.32;4.90;;;;;;;;;;5138131;27;317102;-87
2023/10/19 12:07:16;;;;;;;9.15;5.15;;;;;;;;;;5149652;27;316802;-84
2023/10/19 12:09:44;;;;;;;6.95;4.70;;;;;;;;;;5135257;27;316958;-86
2023/10/19 12:12:13;;;;;;;19.33;5.78;;;;;;;;;;5148572;27;316641;-84
2023/10/19 12:14:41;;;;;;;7.45;5.07;;;;;;;;;;5137011;27;317784;-86
2023/10/19 12:17:10;;;;;;;4.95;4.43;;;;;;;;;;5149986;27;315497;-84
2023/10/19 12:19:38;;;;;;;4.43;3.95;;;;;;;;;;5152801;27;316729;-86
2023/10/19 12:22:08;;;;;;;5.35;4.22;;;;;;;;;;5130548;27;418644;-87
2023/10/19 12:24:35;;;;;;;4.90;4.40;;;;;;;;;;5148611;27;316772;-87
2023/10/19 12:27:03;;;;;;;6.12;4.70;;;;;;;;;;5138615;27;316860;-87
2023/10/19 12:29:31;;;;;;;9.10;4.40;;;;;;;;;;5152900;27;316836;-83
2023/10/19 12:31:59;;;;;;;6.90;4.87;;;;;;;;;;5139814;27;316705;-83
2023/10/19 12:34:29;;;;;;;6.57;5.18;;;;;;;;;;5153450;27;315258;-83
2023/10/19 12:36:58;;;;;;;4.60;4.12;;;;;;;;;;5145055;27;315612;-84
2023/10/19 12:39:43;;;;;;;5.03;4.18;;;;;;;;;;5155870;27;315686;-84
2023/10/19 12:42:10;;;;;;;6.50;4.00;;;;;;;;;;5147698;27;415927;-84
2023/10/19 12:44:41;;;;;;;4.00;3.20;;;;;;;;;;5168371;27;316099;-85
2023/10/19 12:47:12;;;;;;;3.33;3.03;;;;;;;;;;5149885;27;414864;-84
2023/10/19 12:49:42;;;;;;;5.53;3.25;;;;;;;;;;5157098;27;315199;-86
2023/10/19 12:52:10;;;;;;;3.40;3.00;;;;;;;;;;5151605;27;316594;-83
2023/10/19 12:54:39;;;;;;;6.85;3.45;;;;;;;;;;5151046;27;316125;-82
2023/10/19 12:57:07;;;;;;;3.92;2.97;;;;;;;;;;5137935;27;418110;-82
2023/10/19 12:59:37;;;;;;;4.15;3.10;;;;;;;;;;5152450;27;316807;-81
2023/10/19 13:02:04;;;;;;;4.03;3.15;;;;;;;;;;5139580;27;416466;-82
2023/10/19 13:04:32;;;;;;;4.65;3.40;;;;;;;;;;5159637;27;316621;-82
2023/10/19 13:07:02;;;;;;;4.18;3.33;;;;;;;;;;5145768;27;316301;-82
2023/10/19 13:09:32;;;;;;;4.60;3.10;;;;;;;;;;5159139;27;316516;-82
2023/10/19 13:12:00;;;;;;;3.85;3.20;;;;;;;;;;5145065;27;316630;-83
2023/10/19 13:14:27;;;;;;;4.15;3.42;;;;;;;;;;5154465;27;339324;-85
2023/10/19 13:16:55;;;;;;;5.32;3.72;;;;;;;;;;5136540;27;316961;-84
2023/10/19 13:19:25;;;;;;;3.80;3.33;;;;;;;;;;5148309;27;316949;-84
2023/10/19 13:21:52;;;;;;;3.10;2.80;;;;;;;;;;5131402;27;353303;-84
2023/10/19 13:24:21;;;;;;;4.53;3.12;;;;;;;;;;5149603;27;316705;-85
2023/10/19 13:26:49;;;;;;;5.97;4.43;;;;;;;;;;5137796;27;316799;-84
2023/10/19 13:29:17;;;;;;;5.28;4.05;;;;;;;;;;5148626;27;316851;-83
2023/10/19 13:31:49;;;;;;;7.57;4.72;;;;;;;;;;5135367;27;316985;-84
2023/10/19 13:34:17;;;;;;;4.72;4.22;;;;;;;;;;5148220;27;343735;-85
2023/10/19 13:36:46;;;;;;;9.63;4.68;;;;;;;;;;5134179;27;363994;-83
2023/10/19 13:39:16;;;;;;;6.78;4.90;;;;;;;;;;5147386;27;324206;-83
2023/10/19 13:41:46;;;;;;;12.68;4.80;;;;;;;;;;5136959;27;316940;-84
2023/10/19 13:44:14;;;;;;;5.03;4.47;;;;;;;;;;5148057;27;317985;-83
2023/10/19 13:46:42;;;;;;;9.20;5.57;;;;;;;;;;5136463;27;316680;-85
2023/10/19 13:49:09;;;;;;;4.47;3.83;;;;;;;;;;5147711;27;332545;-85
2023/10/19 13:51:37;;;;;;;11.77;5.55;;;;;;;;;;5147345;27;316503;-82
2023/10/19 13:54:04;;;;;;;5.55;4.97;;;;;;;;;;5131018;27;317992;-92
2023/10/19 13:56:31;;;;;;;6.00;5.20;;;;;;;;;;5148979;27;316572;-91
2023/10/19 13:59:01;;;;;;;5.07;4.57;;;;;;;;;;5142909;27;316565;-86
2023/10/19 14:01:28;;;;;;;6.68;4.82;;;;;;;;;;5147772;27;316828;-89
2023/10/19 14:03:56;;;;;;;11.35;5.30;;;;;;;;;;5135292;27;316892;-85
2023/10/19 14:06:25;;;;;;;9.50;5.57;;;;;;;;;;5149774;27;318044;-84
2023/10/19 14:08:52;;;;;;;7.43;5.82;;;;;;;;;;5136529;27;316697;-90
2023/10/19 14:11:21;;;;;;;9.32;6.70;;;;;;;;;;5150499;27;316374;-91
2023/10/19 14:13:51;;;;;;;14.18;7.30;;;;;;;;;;5135149;27;316724;-87
2023/10/19 14:16:20;;;;;;;13.40;7.85;;;;;;;;;;5149759;27;318047;-85
2023/10/19 14:18:48;;;;;;;10.55;7.97;;;;;;;;;;5137002;27;317847;-92
2023/10/19 14:21:16;;;;;;;10.20;7.55;;;;;;;;;;5149301;27;317981;-91
2023/10/19 14:23:44;;;;;;;12.63;7.90;;;;;;;;;;5135634;27;345495;-88
2023/10/19 14:26:13;;;;;;;10.55;6.87;;;;;;;;;;5146151;27;317667;-88
2023/10/19 14:28:40;;;;;;;12.07;7.05;;;;;;;;;;5132678;27;317901;-85
2023/10/19 14:31:08;;;;;;;9.40;7.45;;;;;;;;;;5149046;27;318113;-86
2023/10/19 14:33:37;;;;;;;12.05;7.10;;;;;;;;;;5147888;27;316737;-84
2023/10/19 14:36:06;;;;;;;8.68;7.00;;;;;;;;;;5130474;27;418080;-87
2023/10/19 14:38:33;;;;;;;20.12;8.68;;;;;;;;;;5147241;27;316777;-90
2023/10/19 14:41:01;;;;;;;19.02;8.65;;;;;;;;;;5136463;27;317689;-90
2023/10/19 14:43:29;;;;;;;9.80;7.12;;;;;;;;;;5148332;27;317940;-86
2023/10/19 14:45:57;;;;;;;9.23;7.53;;;;;;;;;;5130364;27;316706;-86
2023/10/19 14:48:25;;;;;;;13.57;8.18;;;;;;;;;;5149200;27;316573;-89
2023/10/19 14:50:57;;;;;;;22.40;10.40;;;;;;;;;;5133860;27;317603;-91
2023/10/19 14:53:24;;;;;;;11.07;8.80;;;;;;;;;;5148149;27;319215;-91